createdAt,value
2024-01-25T00:00:45.709Z,88.51
2024-01-25T00:03:14.694Z,88.40
2024-01-25T00:05:43.566Z,89.42
2024-01-25T00:08:12.451Z,89.48
2024-01-25T00:10:41.153Z,89.24
2024-01-25T00:13:09.700Z,89.21
2024-01-25T00:15:38.574Z,89.15
2024-01-25T00:18:07.465Z,89.68
2024-01-25T00:20:36.149Z,89.03
2024-01-25T00:23:05.285Z,89.28
2024-01-25T00:25:33.989Z,89.55
2024-01-25T00:28:02.837Z,89.80
2024-01-25T00:30:31.740Z,89.97
2024-01-25T00:33:00.249Z,89.36
2024-01-25T00:35:29.531Z,89.41
2024-01-25T00:37:58.536Z,89.70
2024-01-25T00:40:27.625Z,89.95
2024-01-25T00:42:55.947Z,90.18
2024-01-25T00:45:26.249Z,89.68
2024-01-25T00:47:55.629Z,89.89
2024-01-25T00:50:26.504Z,89.43
2024-01-25T00:52:55.715Z,90.11
2024-01-25T00:55:24.930Z,90.61
2024-01-25T00:57:54.368Z,90.05
2024-01-25T01:00:23.820Z,91.08
2024-01-25T01:02:52.512Z,91.37
2024-01-25T01:05:21.609Z,91.68
2024-01-25T01:07:50.783Z,91.57
2024-01-25T01:10:19.900Z,91.67
2024-01-25T01:12:49.021Z,92.47
2024-01-25T01:15:17.687Z,92.43
2024-01-25T01:17:45.737Z,92.09
2024-01-25T01:20:14.893Z,92.96
2024-01-25T01:22:43.783Z,93.65
2024-01-25T01:25:13.247Z,93.11
2024-01-25T01:27:42.120Z,93.06
2024-01-25T01:30:11.687Z,94.35
2024-01-25T01:32:40.429Z,94.98
2024-01-25T01:35:09.692Z,98.05
2024-01-25T01:37:38.474Z,94.30
2024-01-25T01:40:07.812Z,93.52
2024-01-25T01:42:36.555Z,92.86
2024-01-25T01:45:05.406Z,95.03
2024-01-25T01:47:34.392Z,94.40
2024-01-25T01:50:04.200Z,94.52
2024-01-25T01:52:33.730Z,96.46
2024-01-25T01:55:02.381Z,96.14
2024-01-25T01:57:31.717Z,96.66
2024-01-25T02:00:03.405Z,96.28
2024-01-25T02:02:32.417Z,95.19
2024-01-25T02:05:01.239Z,93.74
2024-01-25T02:07:30.012Z,93.67
2024-01-25T02:09:58.705Z,94.39
2024-01-25T02:12:27.343Z,93.63
2024-01-25T02:14:56.135Z,93.92
2024-01-25T02:17:24.918Z,93.62
2024-01-25T02:19:53.889Z,93.82
2024-01-25T02:22:22.969Z,94.12
2024-01-25T02:24:51.956Z,94.52
2024-01-25T02:27:20.569Z,94.25
2024-01-25T02:29:49.325Z,93.36
2024-01-25T02:32:17.349Z,93.81
2024-01-25T02:34:46.174Z,92.79
2024-01-25T02:37:16.852Z,92.73
2024-01-25T02:39:45.705Z,93.90
2024-01-25T02:42:15.885Z,93.16
2024-01-25T02:44:44.507Z,93.46
2024-01-25T02:47:13.177Z,94.82
2024-01-25T02:49:42.074Z,95.61
2024-01-25T02:52:11.076Z,93.20
2024-01-25T02:54:39.785Z,93.95
2024-01-25T02:57:08.539Z,93.75
2024-01-25T02:59:36.630Z,94.03
2024-01-25T03:02:05.433Z,93.76
2024-01-25T03:04:34.490Z,94.33
2024-01-25T03:07:03.503Z,94.32
2024-01-25T03:09:32.223Z,95.42
2024-01-25T03:12:00.967Z,95.70
2024-01-25T03:14:29.838Z,97.47
2024-01-25T03:16:58.546Z,97.01
2024-01-25T03:19:28.657Z,96.29
2024-01-25T03:21:57.621Z,95.02
2024-01-25T03:24:26.393Z,96.13
2024-01-25T03:26:55.019Z,95.30
2024-01-25T03:29:23.676Z,94.80
2024-01-25T03:31:52.876Z,95.49
2024-01-25T03:34:21.784Z,95.46
2024-01-25T03:36:50.573Z,95.69
2024-01-25T03:39:20.025Z,95.58
2024-01-25T03:41:47.979Z,94.41
2024-01-25T03:44:16.777Z,95.93
2024-01-25T03:46:45.392Z,94.56
2024-01-25T03:49:13.441Z,97.52
2024-01-25T03:51:42.472Z,94.58
2024-01-25T03:54:10.804Z,94.37
2024-01-25T03:56:39.432Z,94.77
2024-01-25T03:59:12.991Z,94.56
2024-01-25T04:01:49.706Z,94.87
2024-01-25T04:04:18.811Z,94.73
2024-01-25T04:06:50.767Z,95.19
2024-01-25T04:09:19.966Z,95.43
2024-01-25T04:11:48.671Z,95.54
2024-01-25T04:14:18.344Z,95.37
2024-01-25T04:16:49.264Z,96.85
2024-01-25T04:19:18.086Z,95.76
2024-01-25T04:21:46.876Z,95.51
2024-01-25T04:24:15.567Z,95.98
2024-01-25T04:26:43.693Z,96.61
2024-01-25T04:29:12.391Z,96.74
2024-01-25T04:31:47.926Z,97.00
2024-01-25T04:34:17.100Z,97.23
2024-01-25T04:36:45.948Z,96.65
2024-01-25T04:39:14.741Z,97.00
2024-01-25T04:41:43.522Z,96.79
2024-01-25T04:44:12.418Z,97.04
2024-01-25T04:46:41.035Z,97.53
2024-01-25T04:49:09.884Z,96.68
2024-01-25T04:51:38.618Z,97.18
2024-01-25T04:54:09.082Z,96.40
2024-01-25T04:56:37.645Z,97.13
2024-01-25T04:59:06.297Z,98.81
2024-01-25T05:01:34.475Z,98.53
2024-01-25T05:04:03.560Z,98.22
2024-01-25T05:06:32.355Z,99.39
2024-01-25T05:09:01.175Z,96.49
2024-01-25T05:11:29.773Z,96.65
2024-01-25T05:13:58.379Z,97.30
2024-01-25T05:16:27.131Z,97.63
2024-01-25T05:18:55.947Z,98.25
2024-01-25T05:21:24.768Z,97.72
2024-01-25T05:23:53.520Z,98.20
2024-01-25T05:26:22.407Z,97.34
2024-01-25T05:28:51.286Z,96.28
2024-01-25T05:31:20.325Z,96.99
2024-01-25T05:33:49.401Z,96.89
2024-01-25T05:36:18.156Z,96.54
2024-01-25T05:38:46.823Z,96.32
2024-01-25T05:41:15.509Z,97.82
2024-01-25T05:43:44.194Z,98.30
2024-01-25T05:46:12.926Z,96.91
2024-01-25T05:48:42.193Z,97.35
2024-01-25T05:51:10.334Z,98.25
2024-01-25T05:53:38.997Z,98.15
2024-01-25T05:56:07.720Z,97.46
2024-01-25T05:58:36.490Z,97.70
2024-01-25T06:01:05.310Z,98.20
2024-01-25T06:03:34.124Z,98.44
2024-01-25T06:06:03.022Z,98.42
2024-01-25T06:08:31.719Z,97.14
2024-01-25T06:11:00.463Z,97.68
2024-01-25T06:13:29.234Z,96.58
2024-01-25T06:15:57.934Z,97.79
2024-01-25T06:18:26.668Z,97.53
2024-01-25T06:20:55.416Z,96.77
2024-01-25T06:23:24.049Z,97.70
2024-01-25T06:25:52.625Z,96.60
2024-01-25T06:28:21.928Z,97.88
2024-01-25T06:30:50.663Z,100.00
2024-01-25T06:33:20.019Z,100.00
2024-01-25T06:35:49.576Z,99.05
2024-01-25T06:38:18.204Z,96.33
2024-01-25T06:40:46.948Z,95.34
2024-01-25T06:43:15.749Z,95.36
2024-01-25T06:45:44.491Z,94.81
2024-01-25T06:48:13.573Z,94.91
2024-01-25T06:50:41.802Z,94.56
2024-01-25T06:53:10.520Z,95.40
2024-01-25T06:55:39.119Z,95.20
2024-01-25T06:58:07.777Z,94.50
2024-01-25T07:00:37.398Z,95.34
2024-01-25T07:03:07.242Z,95.59
2024-01-25T07:05:37.877Z,95.54
2024-01-25T07:08:06.940Z,95.24
2024-01-25T07:10:35.662Z,94.49
2024-01-25T07:13:03.931Z,95.16
2024-01-25T07:15:32.685Z,95.64
2024-01-25T07:18:01.444Z,95.62
2024-01-25T07:20:29.968Z,96.52
2024-01-25T07:22:59.185Z,96.29
2024-01-25T07:25:27.900Z,96.82
2024-01-25T07:27:56.634Z,97.03
2024-01-25T07:30:25.548Z,97.71
2024-01-25T07:32:54.584Z,98.38
2024-01-25T07:35:25.863Z,97.99
2024-01-25T07:37:54.609Z,98.33
2024-01-25T07:40:23.684Z,99.13
2024-01-25T07:42:52.508Z,98.58
2024-01-25T07:45:21.428Z,99.11
2024-01-25T07:47:54.223Z,99.67
2024-01-25T07:50:24.763Z,99.72
2024-01-25T07:52:53.675Z,99.13
2024-01-25T07:55:22.328Z,99.13
2024-01-25T07:57:50.958Z,99.55
2024-01-25T08:00:20.388Z,100.00
2024-01-25T08:02:49.085Z,99.28
2024-01-25T08:05:17.860Z,99.00
2024-01-25T08:07:49.475Z,98.16
2024-01-25T08:10:18.337Z,97.53
2024-01-25T08:12:55.607Z,97.47
2024-01-25T08:15:27.552Z,97.74
2024-01-25T08:17:56.360Z,98.36
2024-01-25T08:20:25.230Z,97.43
2024-01-25T08:22:54.080Z,97.71
2024-01-25T08:25:23.866Z,97.93
2024-01-25T08:27:52.114Z,97.40
2024-01-25T08:30:20.966Z,98.12
2024-01-25T08:32:49.064Z,98.23
2024-01-25T08:35:18.205Z,98.89
2024-01-25T08:37:46.978Z,98.94
2024-01-25T08:40:15.926Z,99.03
2024-01-25T08:42:44.629Z,100.00
2024-01-25T08:45:16.189Z,100.00
2024-01-25T08:47:49.590Z,100.00
2024-01-25T08:50:17.940Z,100.00
2024-01-25T08:52:47.084Z,100.00
2024-01-25T08:55:16.419Z,100.00
2024-01-25T08:57:45.209Z,100.00
2024-01-25T09:00:14.197Z,100.00
2024-01-25T09:02:42.896Z,100.00
2024-01-25T09:05:11.971Z,100.00
2024-01-25T09:07:41.136Z,100.00
2024-01-25T09:10:10.640Z,100.00
2024-01-25T09:12:41.806Z,100.00
2024-01-25T09:15:10.887Z,100.00
2024-01-25T09:17:39.901Z,100.00
2024-01-25T09:20:10.586Z,100.00
2024-01-25T09:22:40.030Z,100.00
2024-01-25T09:25:10.518Z,100.00
2024-01-25T09:27:40.908Z,100.00
2024-01-25T09:30:10.658Z,100.00
2024-01-25T09:32:39.486Z,100.00
2024-01-25T09:35:09.205Z,100.00
2024-01-25T09:37:38.148Z,100.00
2024-01-25T09:40:08.524Z,100.00
2024-01-25T09:42:38.644Z,100.00
2024-01-25T09:45:10.098Z,100.00
2024-01-25T09:47:38.880Z,100.00
2024-01-25T09:50:08.263Z,100.00
2024-01-25T09:52:38.375Z,100.00
2024-01-25T09:55:10.838Z,99.61
2024-01-25T09:57:40.216Z,99.88
2024-01-25T10:00:13.579Z,99.45
2024-01-25T10:02:42.691Z,99.56
2024-01-25T10:05:11.555Z,98.77
2024-01-25T10:07:44.901Z,99.14
2024-01-25T10:10:14.797Z,98.73
2024-01-25T10:12:45.506Z,98.38
2024-01-25T10:15:14.369Z,97.50
2024-01-25T10:20:17.581Z,97.28
2024-01-25T10:22:51.837Z,96.93
2024-01-25T10:25:20.768Z,96.17
2024-01-25T10:27:51.270Z,96.56
2024-01-25T10:30:21.501Z,96.92
2024-01-25T10:32:52.495Z,97.41
2024-01-25T10:35:24.772Z,97.19
2024-01-25T10:37:55.021Z,97.73
2024-01-25T10:40:24.898Z,97.49
2024-01-25T10:42:53.890Z,97.57
2024-01-25T10:45:22.914Z,97.52
2024-01-25T10:47:52.289Z,98.08
2024-01-25T10:50:21.315Z,98.50
2024-01-25T10:52:51.674Z,98.05
2024-01-25T10:55:20.807Z,97.43
2024-01-25T10:57:49.864Z,97.03
2024-01-25T11:00:19.073Z,97.10
2024-01-25T11:02:52.187Z,97.35
2024-01-25T11:05:23.947Z,97.22
2024-01-25T11:07:53.506Z,97.32
2024-01-25T11:10:26.842Z,97.81
2024-01-25T11:13:06.465Z,97.64
2024-01-25T11:15:39.574Z,98.41
2024-01-25T11:18:11.331Z,99.03
2024-01-25T11:20:40.195Z,98.64
2024-01-25T11:23:11.821Z,99.02
2024-01-25T11:25:41.123Z,98.54
2024-01-25T11:28:10.602Z,98.03
2024-01-25T11:30:39.809Z,97.69
2024-01-25T11:33:10.139Z,97.11
2024-01-25T11:35:39.806Z,96.91
2024-01-25T11:38:08.558Z,97.30
2024-01-25T11:40:38.585Z,96.75
2024-01-25T11:43:13.269Z,97.95
2024-01-25T11:45:45.199Z,98.21
2024-01-25T11:48:14.220Z,97.90
2024-01-25T11:50:43.148Z,98.52
2024-01-25T11:53:12.430Z,98.89
2024-01-25T11:55:41.389Z,97.89
2024-01-25T11:58:10.406Z,97.62
2024-01-25T12:00:39.656Z,97.40
2024-01-25T12:03:08.919Z,97.23
2024-01-25T12:05:37.755Z,96.25
2024-01-25T12:08:12.300Z,96.91
2024-01-25T12:10:41.286Z,96.72
2024-01-25T12:13:12.922Z,96.23
2024-01-25T12:15:41.646Z,96.25
2024-01-25T12:18:11.095Z,96.38
2024-01-25T12:20:39.969Z,95.75
2024-01-25T12:23:11.163Z,97.12
2024-01-25T12:25:43.477Z,98.18
2024-01-25T12:28:13.035Z,98.38
2024-01-25T12:30:41.759Z,97.26
2024-01-25T12:33:10.574Z,97.58
2024-01-25T12:35:39.644Z,96.93
2024-01-25T12:38:09.511Z,96.90
2024-01-25T12:40:38.340Z,97.89
2024-01-25T12:43:07.146Z,98.14
2024-01-25T12:45:36.210Z,97.68
2024-01-25T12:48:04.821Z,98.53
2024-01-25T12:50:34.896Z,99.54
2024-01-25T12:53:05.112Z,98.94
2024-01-25T12:55:33.948Z,99.62
2024-01-25T12:58:02.870Z,99.50
2024-01-25T13:00:31.105Z,99.43
2024-01-25T13:03:00.333Z,97.96
2024-01-25T13:05:28.984Z,97.69
2024-01-25T13:07:58.060Z,97.60
2024-01-25T13:10:26.735Z,98.37
2024-01-25T13:12:55.486Z,98.09
2024-01-25T13:15:24.274Z,98.17
2024-01-25T13:17:52.970Z,97.41
2024-01-25T13:20:21.712Z,97.58
2024-01-25T13:22:50.349Z,97.34
2024-01-25T13:25:19.316Z,95.94
2024-01-25T13:27:48.150Z,96.34
2024-01-25T13:30:17.103Z,96.48
2024-01-25T13:32:45.951Z,96.92
2024-01-25T13:35:14.926Z,97.26
2024-01-25T13:37:43.873Z,96.02
2024-01-25T13:40:12.862Z,96.66
2024-01-25T13:42:41.387Z,96.87
2024-01-25T13:45:10.709Z,96.89
2024-01-25T13:47:39.500Z,96.81
2024-01-25T13:50:08.469Z,96.85
2024-01-25T13:52:37.105Z,96.56
2024-01-25T13:55:06.348Z,97.15
2024-01-25T13:57:35.116Z,97.28
2024-01-25T14:00:03.774Z,99.14
2024-01-25T14:02:32.437Z,100.00
2024-01-25T14:05:01.111Z,100.00
2024-01-25T14:07:30.036Z,100.00
2024-01-25T14:09:59.873Z,100.00
2024-01-25T14:12:28.796Z,100.00
2024-01-25T14:14:57.613Z,100.00
2024-01-25T14:17:26.591Z,99.90
2024-01-25T14:19:57.041Z,100.00
2024-01-25T14:22:30.187Z,100.00
2024-01-25T14:25:01.529Z,100.00
2024-01-25T14:27:30.545Z,100.00
2024-01-25T14:29:59.338Z,100.00
2024-01-25T14:32:28.110Z,100.00
2024-01-25T14:34:56.917Z,100.00
2024-01-25T14:37:25.846Z,100.00
2024-01-25T14:40:06.890Z,100.00
2024-01-25T14:42:43.316Z,100.00
2024-01-25T14:45:12.292Z,100.00
2024-01-25T14:47:41.069Z,100.00
2024-01-25T14:50:09.808Z,100.00
2024-01-25T14:52:38.434Z,100.00
2024-01-25T14:55:07.752Z,100.00
2024-01-25T14:57:37.479Z,100.00
2024-01-25T15:00:08.514Z,100.00
2024-01-25T15:02:37.275Z,100.00
2024-01-25T15:05:06.365Z,100.00
2024-01-25T15:07:34.960Z,100.00
2024-01-25T15:10:04.023Z,100.00
2024-01-25T15:12:32.732Z,100.00
2024-01-25T15:15:01.905Z,100.00
2024-01-25T15:17:30.640Z,99.18
2024-01-25T15:19:59.334Z,99.86
2024-01-25T15:22:28.722Z,99.65
2024-01-25T15:24:57.484Z,99.75
2024-01-25T15:27:26.134Z,99.81
2024-01-25T15:29:54.863Z,100.00
2024-01-25T15:32:23.690Z,100.00
2024-01-25T15:34:52.353Z,99.43
2024-01-25T15:37:21.368Z,98.79
2024-01-25T15:39:49.445Z,98.33
2024-01-25T15:42:18.172Z,97.49
2024-01-25T15:44:46.911Z,97.61
2024-01-25T15:47:18.445Z,97.71
2024-01-25T15:49:47.099Z,97.36
2024-01-25T15:52:17.594Z,96.74
2024-01-25T15:54:47.528Z,97.07
2024-01-25T15:57:16.228Z,96.06
2024-01-25T15:59:44.932Z,96.56
2024-01-25T16:02:13.619Z,96.56
2024-01-25T16:04:43.902Z,95.79
2024-01-25T16:07:12.600Z,96.66
2024-01-25T16:09:41.325Z,96.41
2024-01-25T16:12:11.241Z,97.23
2024-01-25T16:14:40.063Z,96.79
2024-01-25T16:17:12.789Z,96.58
2024-01-25T16:19:41.656Z,96.34
2024-01-25T16:22:10.899Z,96.20
2024-01-25T16:24:39.547Z,96.00
2024-01-25T16:27:08.378Z,95.70
2024-01-25T16:29:36.986Z,96.68
2024-01-25T16:32:05.984Z,95.69
2024-01-25T16:34:34.858Z,96.44
2024-01-25T16:37:04.231Z,96.61
2024-01-25T16:39:32.880Z,95.42
2024-01-25T16:42:01.527Z,94.59
2024-01-25T16:44:30.273Z,94.19
2024-01-25T16:46:58.863Z,94.03
2024-01-25T16:49:27.542Z,93.68
2024-01-25T16:51:56.342Z,93.70
2024-01-25T16:54:25.180Z,93.04
2024-01-25T16:56:54.009Z,93.15
2024-01-25T16:59:22.706Z,93.13
2024-01-25T17:01:51.411Z,92.15
2024-01-25T17:04:21.341Z,91.60
2024-01-25T17:06:50.677Z,92.57
2024-01-25T17:09:19.464Z,92.08
2024-01-25T17:11:48.409Z,91.37
2024-01-25T17:14:17.074Z,91.07
2024-01-25T17:16:46.513Z,90.62
2024-01-25T17:19:15.155Z,91.04
2024-01-25T17:21:44.078Z,90.94
2024-01-25T17:24:12.890Z,90.54
2024-01-25T17:26:41.657Z,90.08
2024-01-25T17:29:10.324Z,90.99
2024-01-25T17:31:39.040Z,91.63
2024-01-25T17:34:08.412Z,91.12
2024-01-25T17:36:39.349Z,91.48
2024-01-25T17:39:08.076Z,92.16
2024-01-25T17:41:36.672Z,91.88
2024-01-25T17:44:05.467Z,93.45
2024-01-25T17:46:34.547Z,91.88
2024-01-25T17:49:03.516Z,91.80
2024-01-25T17:51:32.307Z,92.45
2024-01-25T17:54:01.025Z,91.33
2024-01-25T17:56:29.675Z,91.03
2024-01-25T17:59:00.135Z,91.54
2024-01-25T18:01:28.965Z,90.97
2024-01-25T18:03:57.863Z,89.93
2024-01-25T18:06:26.666Z,90.70
2024-01-25T18:08:55.349Z,91.78
2024-01-25T18:11:24.259Z,89.07
2024-01-25T18:13:52.925Z,87.76
2024-01-25T18:16:21.534Z,88.17
2024-01-25T18:18:50.286Z,89.67
2024-01-25T18:21:19.631Z,89.86
2024-01-25T18:23:48.214Z,87.25
2024-01-25T18:26:17.230Z,85.88
2024-01-25T18:28:45.895Z,84.80
2024-01-25T18:31:14.516Z,86.44
2024-01-25T18:33:43.449Z,85.39
2024-01-25T18:36:14.327Z,85.46
2024-01-25T18:38:43.177Z,85.62
2024-01-25T18:41:12.164Z,88.96
2024-01-25T18:43:43.936Z,90.95
2024-01-25T18:46:13.810Z,89.71
2024-01-25T18:48:42.631Z,89.93
2024-01-25T18:51:11.538Z,89.01
2024-01-25T18:53:40.462Z,88.57
2024-01-25T18:56:09.684Z,88.49
2024-01-25T18:58:39.037Z,89.03
2024-01-25T19:01:08.272Z,88.43
2024-01-25T19:03:37.361Z,87.99
2024-01-25T19:06:07.938Z,88.34
2024-01-25T19:08:37.004Z,86.37
2024-01-25T19:11:05.846Z,85.85
2024-01-25T19:13:34.528Z,85.71
2024-01-25T19:16:03.182Z,86.02
2024-01-25T19:18:31.927Z,85.03
2024-01-25T19:21:00.725Z,85.58
2024-01-25T19:23:29.449Z,86.55
2024-01-25T19:26:00.107Z,86.47
2024-01-25T19:28:28.746Z,86.17
2024-01-25T19:30:57.517Z,86.60
2024-01-25T19:33:26.422Z,85.90
2024-01-25T19:35:56.024Z,85.83
2024-01-25T19:38:24.737Z,86.90
2024-01-25T19:40:53.666Z,85.11
2024-01-25T19:43:22.208Z,86.04
2024-01-25T19:45:52.141Z,84.50
2024-01-25T19:48:21.099Z,83.84
2024-01-25T19:50:49.852Z,83.46
2024-01-25T19:53:17.905Z,83.52
2024-01-25T19:55:46.578Z,84.27
2024-01-25T19:58:15.496Z,83.25
2024-01-25T20:00:44.369Z,83.33
2024-01-25T20:03:13.269Z,83.28
2024-01-25T20:05:42.224Z,82.41
2024-01-25T20:08:11.631Z,82.39
2024-01-25T20:10:40.317Z,82.96
2024-01-25T20:13:09.173Z,83.32
2024-01-25T20:15:37.935Z,84.14
2024-01-25T20:18:07.138Z,84.34
2024-01-25T20:20:43.182Z,84.27
2024-01-25T20:23:17.390Z,84.65
2024-01-25T20:25:46.190Z,85.04
2024-01-25T20:28:15.390Z,84.73
2024-01-25T20:30:44.132Z,85.48
2024-01-25T20:33:12.440Z,86.14
2024-01-25T20:35:41.044Z,85.91
2024-01-25T20:38:09.754Z,87.78
2024-01-25T20:40:38.462Z,85.05
2024-01-25T20:43:07.151Z,85.62
2024-01-25T20:45:36.742Z,84.55
2024-01-25T20:48:05.966Z,85.83
2024-01-25T20:50:38.804Z,86.40
2024-01-25T20:53:08.609Z,84.87
2024-01-25T20:55:40.089Z,84.79
2024-01-25T20:58:08.839Z,84.26
2024-01-25T21:00:37.513Z,84.56
2024-01-25T21:03:06.686Z,84.11
2024-01-25T21:05:35.772Z,85.29
2024-01-25T21:08:04.849Z,84.93
2024-01-25T21:10:33.157Z,84.18
2024-01-25T21:13:02.140Z,82.64
2024-01-25T21:15:31.148Z,82.01
2024-01-25T21:17:59.881Z,82.58
2024-01-25T21:20:28.700Z,84.02
2024-01-25T21:22:57.430Z,84.49
2024-01-25T21:25:26.083Z,84.64
2024-01-25T21:27:54.772Z,84.08
2024-01-25T21:30:23.469Z,83.16
2024-01-25T21:32:52.510Z,84.57
2024-01-25T21:35:21.964Z,84.23
2024-01-25T21:37:50.715Z,84.63
2024-01-25T21:40:19.305Z,83.75
2024-01-25T21:42:48.093Z,83.63
2024-01-25T21:45:16.184Z,83.92
2024-01-25T21:47:44.278Z,87.00
2024-01-25T21:50:13.661Z,86.42
2024-01-25T21:52:43.051Z,86.66
2024-01-25T21:55:13.345Z,85.87
2024-01-25T21:57:54.511Z,85.71
2024-01-25T22:00:26.080Z,86.59
2024-01-25T22:02:55.035Z,88.17
2024-01-25T22:05:26.139Z,86.18
2024-01-25T22:07:55.743Z,87.05
2024-01-25T22:10:25.851Z,86.76
2024-01-25T22:12:54.470Z,87.55
2024-01-25T22:15:23.131Z,89.07
2024-01-25T22:17:52.119Z,89.41
2024-01-25T22:20:20.910Z,90.05
2024-01-25T22:22:49.678Z,90.70
2024-01-25T22:25:18.509Z,90.12
2024-01-25T22:27:47.388Z,87.77
2024-01-25T22:30:19.709Z,88.56
2024-01-25T22:32:48.849Z,88.15
2024-01-25T22:35:17.676Z,88.95
2024-01-25T22:37:46.593Z,88.42
2024-01-25T22:40:15.486Z,88.25
2024-01-25T22:42:44.194Z,88.80
2024-01-25T22:45:13.083Z,88.65
2024-01-25T22:47:41.718Z,89.41
2024-01-25T22:50:10.622Z,89.21
2024-01-25T22:52:39.339Z,89.15
2024-01-25T22:55:08.276Z,87.81
2024-01-25T22:57:37.267Z,87.07
2024-01-25T23:00:07.046Z,87.83
2024-01-25T23:02:36.065Z,88.10
2024-01-25T23:05:06.313Z,89.42
2024-01-25T23:07:34.981Z,88.39
2024-01-25T23:10:03.773Z,88.66
2024-01-25T23:12:32.536Z,89.77
2024-01-25T23:15:01.289Z,90.00
2024-01-25T23:17:30.607Z,90.07
2024-01-25T23:19:59.520Z,90.69
2024-01-25T23:22:29.448Z,90.88
2024-01-25T23:24:57.461Z,90.23
2024-01-25T23:27:26.255Z,91.12
2024-01-25T23:29:54.997Z,90.54
2024-01-25T23:32:23.726Z,91.00
2024-01-25T23:34:52.400Z,90.73
2024-01-25T23:37:21.746Z,91.38
2024-01-25T23:39:50.445Z,91.17
2024-01-25T23:42:19.267Z,91.11
2024-01-25T23:44:47.986Z,91.33
2024-01-25T23:47:16.799Z,91.01
2024-01-25T23:49:45.591Z,91.17
2024-01-25T23:52:14.517Z,91.25
2024-01-25T23:54:43.437Z,91.42
2024-01-25T23:57:12.082Z,91.59
2024-01-25T23:59:40.942Z,91.72
